sensor_id;sensor_type;location;lat;lon;timestamp;P1;durP1;ratioP1;P2;durP2;ratioP2
39314;SDS011;28703;44.412;11.918;2024-02-23T00:00:03;9.68;;;4.05;;
39314;SDS011;28703;44.412;11.918;2024-02-23T00:02:31;6.70;;;3.92;;
39314;SDS011;28703;44.412;11.918;2024-02-23T00:04:57;3.95;;;3.25;;
39314;SDS011;28703;44.412;11.918;2024-02-23T00:07:23;3.75;;;3.30;;
39314;SDS011;28703;44.412;11.918;2024-02-23T00:09:49;4.10;;;3.30;;
39314;SDS011;28703;44.412;11.918;2024-02-23T00:12:14;4.88;;;3.17;;
39314;SDS011;28703;44.412;11.918;2024-02-23T00:14:40;6.28;;;3.60;;
39314;SDS011;28703;44.412;11.918;2024-02-23T00:17:06;3.53;;;3.20;;
39314;SDS011;28703;44.412;11.918;2024-02-23T00:19:32;4.03;;;3.30;;
39314;SDS011;28703;44.412;11.918;2024-02-23T00:21:57;6.18;;;3.53;;
39314;SDS011;28703;44.412;11.918;2024-02-23T00:24:27;7.35;;;3.55;;
39314;SDS011;28703;44.412;11.918;2024-02-23T00:26:54;5.57;;;3.58;;
39314;SDS011;28703;44.412;11.918;2024-02-23T00:29:20;7.53;;;3.40;;
39314;SDS011;28703;44.412;11.918;2024-02-23T00:31:46;6.55;;;3.65;;
39314;SDS011;28703;44.412;11.918;2024-02-23T00:34:12;5.97;;;3.30;;
39314;SDS011;28703;44.412;11.918;2024-02-23T00:36:39;3.90;;;3.20;;
39314;SDS011;28703;44.412;11.918;2024-02-23T00:39:06;10.02;;;3.97;;
39314;SDS011;28703;44.412;11.918;2024-02-23T00:41:35;8.30;;;3.63;;
39314;SDS011;28703;44.412;11.918;2024-02-23T00:44:01;5.20;;;3.08;;
39314;SDS011;28703;44.412;11.918;2024-02-23T00:46:28;3.42;;;2.85;;
39314;SDS011;28703;44.412;11.918;2024-02-23T00:48:53;5.30;;;2.85;;
39314;SDS011;28703;44.412;11.918;2024-02-23T00:51:19;5.78;;;2.63;;
39314;SDS011;28703;44.412;11.918;2024-02-23T00:53:45;7.57;;;3.53;;
39314;SDS011;28703;44.412;11.918;2024-02-23T00:56:11;5.22;;;2.97;;
39314;SDS011;28703;44.412;11.918;2024-02-23T00:58:38;4.97;;;3.05;;
39314;SDS011;28703;44.412;11.918;2024-02-23T01:01:04;7.57;;;3.22;;
39314;SDS011;28703;44.412;11.918;2024-02-23T01:03:30;6.00;;;3.95;;
39314;SDS011;28703;44.412;11.918;2024-02-23T01:05:56;4.43;;;2.80;;
39314;SDS011;28703;44.412;11.918;2024-02-23T01:08:21;5.28;;;3.10;;
39314;SDS011;28703;44.412;11.918;2024-02-23T01:10:47;7.32;;;3.42;;
39314;SDS011;28703;44.412;11.918;2024-02-23T01:13:13;4.90;;;3.00;;
39314;SDS011;28703;44.412;11.918;2024-02-23T01:15:39;7.30;;;3.53;;
39314;SDS011;28703;44.412;11.918;2024-02-23T01:18:05;6.55;;;3.47;;
39314;SDS011;28703;44.412;11.918;2024-02-23T01:20:34;7.80;;;3.05;;
39314;SDS011;28703;44.412;11.918;2024-02-23T01:23:00;7.35;;;3.42;;
39314;SDS011;28703;44.412;11.918;2024-02-23T01:25:26;5.47;;;2.90;;
39314;SDS011;28703;44.412;11.918;2024-02-23T01:27:52;5.18;;;2.85;;
39314;SDS011;28703;44.412;11.918;2024-02-23T01:30:17;4.88;;;2.97;;
39314;SDS011;28703;44.412;11.918;2024-02-23T01:32:44;7.18;;;3.10;;
39314;SDS011;28703;44.412;11.918;2024-02-23T01:35:10;6.50;;;3.20;;
39314;SDS011;28703;44.412;11.918;2024-02-23T01:37:36;7.90;;;3.53;;
39314;SDS011;28703;44.412;11.918;2024-02-23T01:40:02;6.28;;;3.17;;
39314;SDS011;28703;44.412;11.918;2024-02-23T01:42:28;7.68;;;3.67;;
39314;SDS011;28703;44.412;11.918;2024-02-23T01:44:54;8.07;;;3.30;;
39314;SDS011;28703;44.412;11.918;2024-02-23T01:47:26;4.07;;;3.08;;
39314;SDS011;28703;44.412;11.918;2024-02-23T01:49:54;7.00;;;3.17;;
39314;SDS011;28703;44.412;11.918;2024-02-23T01:52:21;5.50;;;2.80;;
39314;SDS011;28703;44.412;11.918;2024-02-23T01:54:47;3.28;;;2.72;;
39314;SDS011;28703;44.412;11.918;2024-02-23T01:57:13;8.85;;;3.92;;
39314;SDS011;28703;44.412;11.918;2024-02-23T01:59:40;6.43;;;2.65;;
39314;SDS011;28703;44.412;11.918;2024-02-23T02:02:08;4.78;;;2.78;;
39314;SDS011;28703;44.412;11.918;2024-02-23T02:04:34;4.15;;;2.65;;
39314;SDS011;28703;44.412;11.918;2024-02-23T02:07:00;3.33;;;2.83;;
39314;SDS011;28703;44.412;11.918;2024-02-23T02:09:26;7.00;;;2.97;;
39314;SDS011;28703;44.412;11.918;2024-02-23T02:11:52;7.28;;;3.58;;
39314;SDS011;28703;44.412;11.918;2024-02-23T02:14:18;7.00;;;3.05;;
39314;SDS011;28703;44.412;11.918;2024-02-23T02:16:44;9.10;;;3.30;;
39314;SDS011;28703;44.412;11.918;2024-02-23T02:19:10;8.18;;;2.85;;
39314;SDS011;28703;44.412;11.918;2024-02-23T02:21:37;3.97;;;2.97;;
39314;SDS011;28703;44.412;11.918;2024-02-23T02:24:03;4.40;;;3.20;;
39314;SDS011;28703;44.412;11.918;2024-02-23T02:26:29;5.30;;;3.05;;
39314;SDS011;28703;44.412;11.918;2024-02-23T02:28:55;7.47;;;3.00;;
39314;SDS011;28703;44.412;11.918;2024-02-23T02:31:21;10.73;;;3.30;;
39314;SDS011;28703;44.412;11.918;2024-02-23T02:33:47;7.95;;;2.92;;
39314;SDS011;28703;44.412;11.918;2024-02-23T02:36:13;9.35;;;3.08;;
39314;SDS011;28703;44.412;11.918;2024-02-23T02:38:38;6.57;;;2.88;;
39314;SDS011;28703;44.412;11.918;2024-02-23T02:41:04;5.30;;;3.13;;
39314;SDS011;28703;44.412;11.918;2024-02-23T02:43:30;10.05;;;3.90;;
39314;SDS011;28703;44.412;11.918;2024-02-23T02:45:56;6.45;;;3.65;;
39314;SDS011;28703;44.412;11.918;2024-02-23T02:48:23;6.55;;;2.80;;
39314;SDS011;28703;44.412;11.918;2024-02-23T02:50:48;4.90;;;2.85;;
39314;SDS011;28703;44.412;11.918;2024-02-23T02:53:15;4.68;;;2.78;;
39314;SDS011;28703;44.412;11.918;2024-02-23T02:55:41;6.13;;;2.50;;
39314;SDS011;28703;44.412;11.918;2024-02-23T02:58:08;4.95;;;2.80;;
39314;SDS011;28703;44.412;11.918;2024-02-23T03:00:34;6.40;;;2.60;;
39314;SDS011;28703;44.412;11.918;2024-02-23T03:03:00;7.93;;;2.88;;
39314;SDS011;28703;44.412;11.918;2024-02-23T03:05:26;8.82;;;3.72;;
39314;SDS011;28703;44.412;11.918;2024-02-23T03:07:52;8.98;;;2.88;;
39314;SDS011;28703;44.412;11.918;2024-02-23T03:10:17;7.97;;;3.13;;
39314;SDS011;28703;44.412;11.918;2024-02-23T03:12:43;11.13;;;2.70;;
39314;SDS011;28703;44.412;11.918;2024-02-23T03:15:09;6.80;;;2.83;;
39314;SDS011;28703;44.412;11.918;2024-02-23T03:17:35;7.35;;;3.25;;
39314;SDS011;28703;44.412;11.918;2024-02-23T03:20:01;5.90;;;2.40;;
39314;SDS011;28703;44.412;11.918;2024-02-23T03:22:30;5.07;;;2.45;;
39314;SDS011;28703;44.412;11.918;2024-02-23T03:24:56;4.65;;;2.30;;
39314;SDS011;28703;44.412;11.918;2024-02-23T03:27:27;5.75;;;2.60;;
39314;SDS011;28703;44.412;11.918;2024-02-23T03:29:56;7.70;;;2.88;;
39314;SDS011;28703;44.412;11.918;2024-02-23T03:32:22;6.40;;;2.95;;
39314;SDS011;28703;44.412;11.918;2024-02-23T03:34:48;7.53;;;2.80;;
39314;SDS011;28703;44.412;11.918;2024-02-23T03:37:14;6.90;;;3.40;;
39314;SDS011;28703;44.412;11.918;2024-02-23T03:39:39;4.43;;;2.38;;
39314;SDS011;28703;44.412;11.918;2024-02-23T03:42:05;5.97;;;2.50;;
39314;SDS011;28703;44.412;11.918;2024-02-23T03:44:31;4.72;;;2.55;;
39314;SDS011;28703;44.412;11.918;2024-02-23T03:46:57;12.25;;;3.00;;
39314;SDS011;28703;44.412;11.918;2024-02-23T03:49:22;5.65;;;2.78;;
39314;SDS011;28703;44.412;11.918;2024-02-23T03:51:48;7.22;;;2.90;;
39314;SDS011;28703;44.412;11.918;2024-02-23T03:54:14;6.15;;;2.58;;
39314;SDS011;28703;44.412;11.918;2024-02-23T03:56:40;6.93;;;2.53;;
39314;SDS011;28703;44.412;11.918;2024-02-23T03:59:07;7.85;;;3.38;;
39314;SDS011;28703;44.412;11.918;2024-02-23T04:01:39;5.07;;;2.45;;
39314;SDS011;28703;44.412;11.918;2024-02-23T04:04:05;11.32;;;3.08;;
39314;SDS011;28703;44.412;11.918;2024-02-23T04:06:31;10.85;;;2.90;;
39314;SDS011;28703;44.412;11.918;2024-02-23T04:08:58;7.43;;;2.70;;
39314;SDS011;28703;44.412;11.918;2024-02-23T04:11:24;10.82;;;2.75;;
39314;SDS011;28703;44.412;11.918;2024-02-23T04:13:50;6.53;;;2.63;;
39314;SDS011;28703;44.412;11.918;2024-02-23T04:16:15;5.65;;;2.72;;
39314;SDS011;28703;44.412;11.918;2024-02-23T04:18:41;6.40;;;2.80;;
39314;SDS011;28703;44.412;11.918;2024-02-23T04:21:07;7.22;;;2.90;;
39314;SDS011;28703;44.412;11.918;2024-02-23T04:23:32;4.82;;;2.40;;
39314;SDS011;28703;44.412;11.918;2024-02-23T04:25:58;9.73;;;2.85;;
39314;SDS011;28703;44.412;11.918;2024-02-23T04:28:24;7.28;;;2.40;;
39314;SDS011;28703;44.412;11.918;2024-02-23T04:30:51;9.93;;;3.10;;
39314;SDS011;28703;44.412;11.918;2024-02-23T04:33:17;8.70;;;2.50;;
39314;SDS011;28703;44.412;11.918;2024-02-23T04:35:43;7.28;;;2.75;;
39314;SDS011;28703;44.412;11.918;2024-02-23T04:38:09;6.97;;;2.78;;
39314;SDS011;28703;44.412;11.918;2024-02-23T04:40:35;9.18;;;3.17;;
39314;SDS011;28703;44.412;11.918;2024-02-23T04:43:00;7.07;;;2.65;;
39314;SDS011;28703;44.412;11.918;2024-02-23T04:45:26;8.27;;;2.70;;
39314;SDS011;28703;44.412;11.918;2024-02-23T04:47:52;3.75;;;2.15;;
39314;SDS011;28703;44.412;11.918;2024-02-23T04:50:17;5.82;;;2.95;;
39314;SDS011;28703;44.412;11.918;2024-02-23T04:52:43;9.90;;;3.55;;
39314;SDS011;28703;44.412;11.918;2024-02-23T04:55:09;7.80;;;2.95;;
39314;SDS011;28703;44.412;11.918;2024-02-23T04:57:36;11.35;;;2.30;;
39314;SDS011;28703;44.412;11.918;2024-02-23T05:00:03;5.88;;;2.60;;
39314;SDS011;28703;44.412;11.918;2024-02-23T05:02:29;9.10;;;3.22;;
39314;SDS011;28703;44.412;11.918;2024-02-23T05:05:00;8.60;;;3.25;;
39314;SDS011;28703;44.412;11.918;2024-02-23T05:07:30;6.50;;;3.08;;
39314;SDS011;28703;44.412;11.918;2024-02-23T05:09:56;5.95;;;2.33;;
39314;SDS011;28703;44.412;11.918;2024-02-23T05:12:22;9.00;;;2.70;;
39314;SDS011;28703;44.412;11.918;2024-02-23T05:14:48;8.00;;;2.90;;
39314;SDS011;28703;44.412;11.918;2024-02-23T05:17:14;6.72;;;2.50;;
39314;SDS011;28703;44.412;11.918;2024-02-23T05:19:39;7.68;;;2.25;;
39314;SDS011;28703;44.412;11.918;2024-02-23T05:22:05;6.97;;;2.13;;
39314;SDS011;28703;44.412;11.918;2024-02-23T05:24:31;3.80;;;2.10;;
39314;SDS011;28703;44.412;11.918;2024-02-23T05:26:56;5.28;;;2.40;;
39314;SDS011;28703;44.412;11.918;2024-02-23T05:29:23;8.35;;;2.30;;
39314;SDS011;28703;44.412;11.918;2024-02-23T05:31:51;4.40;;;2.58;;
39314;SDS011;28703;44.412;11.918;2024-02-23T05:34:17;12.50;;;2.13;;
39314;SDS011;28703;44.412;11.918;2024-02-23T05:36:44;5.88;;;2.50;;
39314;SDS011;28703;44.412;11.918;2024-02-23T05:39:11;3.78;;;2.20;;
39314;SDS011;28703;44.412;11.918;2024-02-23T05:41:38;7.97;;;2.30;;
39314;SDS011;28703;44.412;11.918;2024-02-23T05:44:04;9.15;;;3.22;;
39314;SDS011;28703;44.412;11.918;2024-02-23T05:46:34;7.60;;;1.90;;
39314;SDS011;28703;44.412;11.918;2024-02-23T05:49:01;3.80;;;2.22;;
39314;SDS011;28703;44.412;11.918;2024-02-23T05:51:28;6.43;;;2.60;;
39314;SDS011;28703;44.412;11.918;2024-02-23T05:53:54;6.30;;;2.58;;
39314;SDS011;28703;44.412;11.918;2024-02-23T05:56:20;4.22;;;2.47;;
39314;SDS011;28703;44.412;11.918;2024-02-23T05:58:47;6.07;;;2.30;;
39314;SDS011;28703;44.412;11.918;2024-02-23T06:01:13;5.97;;;2.58;;
39314;SDS011;28703;44.412;11.918;2024-02-23T06:03:39;8.20;;;3.30;;
39314;SDS011;28703;44.412;11.918;2024-02-23T06:06:08;5.45;;;2.08;;
39314;SDS011;28703;44.412;11.918;2024-02-23T06:08:34;2.10;;;1.90;;
39314;SDS011;28703;44.412;11.918;2024-02-23T06:11:01;6.85;;;2.58;;
39314;SDS011;28703;44.412;11.918;2024-02-23T06:13:28;3.30;;;1.83;;
39314;SDS011;28703;44.412;11.918;2024-02-23T06:15:57;6.20;;;2.20;;
39314;SDS011;28703;44.412;11.918;2024-02-23T06:18:23;9.73;;;3.50;;
39314;SDS011;28703;44.412;11.918;2024-02-23T06:20:49;6.97;;;2.60;;
39314;SDS011;28703;44.412;11.918;2024-02-23T06:23:15;4.63;;;2.35;;
39314;SDS011;28703;44.412;11.918;2024-02-23T06:25:42;2.90;;;2.00;;
39314;SDS011;28703;44.412;11.918;2024-02-23T06:28:09;4.32;;;2.25;;
39314;SDS011;28703;44.412;11.918;2024-02-23T06:30:36;5.70;;;2.25;;
39314;SDS011;28703;44.412;11.918;2024-02-23T06:33:01;5.47;;;2.50;;
39314;SDS011;28703;44.412;11.918;2024-02-23T06:35:27;4.97;;;2.42;;
39314;SDS011;28703;44.412;11.918;2024-02-23T06:37:53;4.85;;;2.08;;
39314;SDS011;28703;44.412;11.918;2024-02-23T06:40:19;7.72;;;2.15;;
39314;SDS011;28703;44.412;11.918;2024-02-23T06:42:44;6.88;;;2.08;;
39314;SDS011;28703;44.412;11.918;2024-02-23T06:45:10;6.18;;;2.30;;
39314;SDS011;28703;44.412;11.918;2024-02-23T06:47:36;2.85;;;2.10;;
39314;SDS011;28703;44.412;11.918;2024-02-23T06:50:02;4.50;;;2.40;;
39314;SDS011;28703;44.412;11.918;2024-02-23T06:52:28;6.18;;;2.45;;
39314;SDS011;28703;44.412;11.918;2024-02-23T06:54:54;1.95;;;1.77;;
39314;SDS011;28703;44.412;11.918;2024-02-23T06:57:20;4.63;;;2.17;;
39314;SDS011;28703;44.412;11.918;2024-02-23T06:59:46;7.72;;;2.28;;
39314;SDS011;28703;44.412;11.918;2024-02-23T07:02:11;7.78;;;2.47;;
39314;SDS011;28703;44.412;11.918;2024-02-23T07:04:37;10.00;;;2.85;;
39314;SDS011;28703;44.412;11.918;2024-02-23T07:07:03;9.10;;;2.65;;
39314;SDS011;28703;44.412;11.918;2024-02-23T07:09:32;4.63;;;1.98;;
39314;SDS011;28703;44.412;11.918;2024-02-23T07:11:58;4.43;;;2.17;;
39314;SDS011;28703;44.412;11.918;2024-02-23T07:14:24;3.97;;;2.40;;
39314;SDS011;28703;44.412;11.918;2024-02-23T07:16:50;5.20;;;2.58;;
39314;SDS011;28703;44.412;11.918;2024-02-23T07:19:17;2.97;;;1.90;;
39314;SDS011;28703;44.412;11.918;2024-02-23T07:21:45;5.82;;;2.30;;
39314;SDS011;28703;44.412;11.918;2024-02-23T07:24:11;6.30;;;2.75;;
39314;SDS011;28703;44.412;11.918;2024-02-23T07:26:37;4.22;;;2.40;;
39314;SDS011;28703;44.412;11.918;2024-02-23T07:29:02;3.35;;;2.13;;
39314;SDS011;28703;44.412;11.918;2024-02-23T07:31:28;5.05;;;2.35;;
39314;SDS011;28703;44.412;11.918;2024-02-23T07:33:54;7.53;;;2.88;;
39314;SDS011;28703;44.412;11.918;2024-02-23T07:36:20;8.02;;;3.67;;
39314;SDS011;28703;44.412;11.918;2024-02-23T07:38:45;7.25;;;3.05;;
39314;SDS011;28703;44.412;11.918;2024-02-23T07:41:12;5.20;;;3.30;;
39314;SDS011;28703;44.412;11.918;2024-02-23T07:43:38;15.68;;;3.85;;
39314;SDS011;28703;44.412;11.918;2024-02-23T07:46:04;10.70;;;3.92;;
39314;SDS011;28703;44.412;11.918;2024-02-23T07:48:33;7.68;;;3.45;;
39314;SDS011;28703;44.412;11.918;2024-02-23T07:51:02;7.53;;;3.63;;
39314;SDS011;28703;44.412;11.918;2024-02-23T07:53:30;10.88;;;4.43;;
39314;SDS011;28703;44.412;11.918;2024-02-23T07:55:56;9.40;;;4.35;;
39314;SDS011;28703;44.412;11.918;2024-02-23T07:58:27;10.20;;;4.13;;
39314;SDS011;28703;44.412;11.918;2024-02-23T08:00:52;9.95;;;4.53;;
39314;SDS011;28703;44.412;11.918;2024-02-23T08:03:18;13.27;;;4.20;;
39314;SDS011;28703;44.412;11.918;2024-02-23T08:05:44;9.52;;;3.35;;
39314;SDS011;28703;44.412;11.918;2024-02-23T08:08:10;11.50;;;4.07;;
39314;SDS011;28703;44.412;11.918;2024-02-23T08:10:36;18.23;;;4.35;;
39314;SDS011;28703;44.412;11.918;2024-02-23T08:13:02;11.32;;;3.83;;
39314;SDS011;28703;44.412;11.918;2024-02-23T08:15:27;10.98;;;4.30;;
39314;SDS011;28703;44.412;11.918;2024-02-23T08:17:53;13.50;;;4.25;;
39314;SDS011;28703;44.412;11.918;2024-02-23T08:20:19;8.65;;;4.38;;
39314;SDS011;28703;44.412;11.918;2024-02-23T08:22:46;14.32;;;4.78;;
39314;SDS011;28703;44.412;11.918;2024-02-23T08:25:12;9.60;;;4.10;;
39314;SDS011;28703;44.412;11.918;2024-02-23T08:27:37;8.85;;;4.25;;
39314;SDS011;28703;44.412;11.918;2024-02-23T08:30:03;8.43;;;3.75;;
39314;SDS011;28703;44.412;11.918;2024-02-23T08:32:30;7.45;;;4.18;;
39314;SDS011;28703;44.412;11.918;2024-02-23T08:34:55;9.15;;;4.00;;
39314;SDS011;28703;44.412;11.918;2024-02-23T08:37:27;8.95;;;4.18;;
39314;SDS011;28703;44.412;11.918;2024-02-23T08:39:53;12.77;;;4.20;;
39314;SDS011;28703;44.412;11.918;2024-02-23T08:42:19;10.52;;;3.65;;
39314;SDS011;28703;44.412;11.918;2024-02-23T08:44:45;13.73;;;4.20;;
39314;SDS011;28703;44.412;11.918;2024-02-23T08:47:11;14.38;;;3.97;;
39314;SDS011;28703;44.412;11.918;2024-02-23T08:49:37;7.30;;;4.72;;
39314;SDS011;28703;44.412;11.918;2024-02-23T08:52:02;11.07;;;3.58;;
39314;SDS011;28703;44.412;11.918;2024-02-23T08:54:29;13.85;;;4.15;;
39314;SDS011;28703;44.412;11.918;2024-02-23T08:56:55;14.40;;;3.95;;
39314;SDS011;28703;44.412;11.918;2024-02-23T08:59:20;11.77;;;4.10;;
39314;SDS011;28703;44.412;11.918;2024-02-23T09:01:46;9.13;;;4.05;;
39314;SDS011;28703;44.412;11.918;2024-02-23T09:04:12;13.45;;;4.72;;
39314;SDS011;28703;44.412;11.918;2024-02-23T09:06:38;8.75;;;4.25;;
39314;SDS011;28703;44.412;11.918;2024-02-23T09:09:04;13.70;;;4.40;;
39314;SDS011;28703;44.412;11.918;2024-02-23T09:11:30;9.98;;;4.25;;
39314;SDS011;28703;44.412;11.918;2024-02-23T09:13:56;11.88;;;4.85;;
39314;SDS011;28703;44.412;11.918;2024-02-23T09:16:21;20.23;;;5.03;;
39314;SDS011;28703;44.412;11.918;2024-02-23T09:18:50;13.10;;;4.50;;
39314;SDS011;28703;44.412;11.918;2024-02-23T09:21:16;8.35;;;3.78;;
39314;SDS011;28703;44.412;11.918;2024-02-23T09:23:42;14.70;;;4.07;;
39314;SDS011;28703;44.412;11.918;2024-02-23T09:26:10;10.55;;;4.40;;
39314;SDS011;28703;44.412;11.918;2024-02-23T09:28:36;14.15;;;4.50;;
39314;SDS011;28703;44.412;11.918;2024-02-23T09:31:02;7.10;;;3.85;;
39314;SDS011;28703;44.412;11.918;2024-02-23T09:33:30;9.32;;;3.83;;
39314;SDS011;28703;44.412;11.918;2024-02-23T09:35:56;12.48;;;3.92;;
39314;SDS011;28703;44.412;11.918;2024-02-23T09:38:22;10.73;;;4.18;;
39314;SDS011;28703;44.412;11.918;2024-02-23T09:40:50;10.55;;;3.83;;
39314;SDS011;28703;44.412;11.918;2024-02-23T09:43:16;7.80;;;4.50;;
39314;SDS011;28703;44.412;11.918;2024-02-23T09:45:43;14.65;;;4.55;;
39314;SDS011;28703;44.412;11.918;2024-02-23T09:48:10;10.38;;;4.45;;
39314;SDS011;28703;44.412;11.918;2024-02-23T09:50:39;11.07;;;4.30;;
39314;SDS011;28703;44.412;11.918;2024-02-23T09:53:07;11.25;;;4.03;;
39314;SDS011;28703;44.412;11.918;2024-02-23T09:55:36;10.48;;;4.75;;
39314;SDS011;28703;44.412;11.918;2024-02-23T09:58:02;10.32;;;3.97;;
39314;SDS011;28703;44.412;11.918;2024-02-23T10:00:29;10.30;;;4.30;;
39314;SDS011;28703;44.412;11.918;2024-02-23T10:02:55;12.07;;;4.43;;
39314;SDS011;28703;44.412;11.918;2024-02-23T10:05:29;8.50;;;4.40;;
39314;SDS011;28703;44.412;11.918;2024-02-23T10:07:56;11.38;;;5.10;;
39314;SDS011;28703;44.412;11.918;2024-02-23T10:10:29;13.00;;;4.97;;
39314;SDS011;28703;44.412;11.918;2024-02-23T10:12:57;8.43;;;3.95;;
39314;SDS011;28703;44.412;11.918;2024-02-23T10:15:25;12.18;;;4.20;;
39314;SDS011;28703;44.412;11.918;2024-02-23T10:17:51;17.05;;;4.43;;
39314;SDS011;28703;44.412;11.918;2024-02-23T10:20:19;9.95;;;4.50;;
39314;SDS011;28703;44.412;11.918;2024-02-23T10:22:45;10.27;;;4.40;;
39314;SDS011;28703;44.412;11.918;2024-02-23T10:25:11;8.48;;;4.65;;
39314;SDS011;28703;44.412;11.918;2024-02-23T10:27:37;7.97;;;4.50;;
39314;SDS011;28703;44.412;11.918;2024-02-23T10:30:03;9.00;;;4.18;;
39314;SDS011;28703;44.412;11.918;2024-02-23T10:32:29;12.13;;;4.40;;
39314;SDS011;28703;44.412;11.918;2024-02-23T10:34:59;10.70;;;3.92;;
39314;SDS011;28703;44.412;11.918;2024-02-23T10:37:29;11.00;;;4.97;;
39314;SDS011;28703;44.412;11.918;2024-02-23T10:39:57;13.60;;;4.85;;
39314;SDS011;28703;44.412;11.918;2024-02-23T10:42:26;11.13;;;4.20;;
39314;SDS011;28703;44.412;11.918;2024-02-23T10:44:58;9.40;;;4.30;;
39314;SDS011;28703;44.412;11.918;2024-02-23T10:47:26;10.32;;;4.15;;
39314;SDS011;28703;44.412;11.918;2024-02-23T10:49:53;10.45;;;3.95;;
39314;SDS011;28703;44.412;11.918;2024-02-23T10:52:19;8.02;;;4.20;;
39314;SDS011;28703;44.412;11.918;2024-02-23T10:54:48;14.02;;;4.65;;
39314;SDS011;28703;44.412;11.918;2024-02-23T10:57:17;7.47;;;4.18;;
39314;SDS011;28703;44.412;11.918;2024-02-23T10:59:46;12.90;;;3.80;;
39314;SDS011;28703;44.412;11.918;2024-02-23T11:02:12;11.88;;;4.15;;
39314;SDS011;28703;44.412;11.918;2024-02-23T11:04:47;12.10;;;4.25;;
39314;SDS011;28703;44.412;11.918;2024-02-23T11:07:20;9.55;;;4.10;;
39314;SDS011;28703;44.412;11.918;2024-02-23T11:09:54;19.95;;;4.65;;
39314;SDS011;28703;44.412;11.918;2024-02-23T11:12:24;11.30;;;5.40;;
39314;SDS011;28703;44.412;11.918;2024-02-23T11:14:51;11.98;;;4.80;;
39314;SDS011;28703;44.412;11.918;2024-02-23T11:17:21;12.05;;;4.50;;
39314;SDS011;28703;44.412;11.918;2024-02-23T11:19:50;15.75;;;4.15;;
39314;SDS011;28703;44.412;11.918;2024-02-23T11:22:25;10.60;;;4.30;;
39314;SDS011;28703;44.412;11.918;2024-02-23T11:24:52;7.10;;;4.07;;
39314;SDS011;28703;44.412;11.918;2024-02-23T11:27:19;14.57;;;3.97;;
39314;SDS011;28703;44.412;11.918;2024-02-23T11:29:45;7.43;;;3.88;;
39314;SDS011;28703;44.412;11.918;2024-02-23T11:32:13;15.55;;;5.05;;
39314;SDS011;28703;44.412;11.918;2024-02-23T11:34:39;8.38;;;3.72;;
39314;SDS011;28703;44.412;11.918;2024-02-23T11:37:11;8.25;;;3.30;;
39314;SDS011;28703;44.412;11.918;2024-02-23T11:39:37;6.65;;;3.40;;
39314;SDS011;28703;44.412;11.918;2024-02-23T11:42:05;12.25;;;3.95;;
39314;SDS011;28703;44.412;11.918;2024-02-23T11:44:31;10.02;;;3.65;;
39314;SDS011;28703;44.412;11.918;2024-02-23T11:46:58;10.90;;;5.85;;
39314;SDS011;28703;44.412;11.918;2024-02-23T11:49:28;10.20;;;6.80;;
39314;SDS011;28703;44.412;11.918;2024-02-23T11:51:54;12.63;;;6.30;;
39314;SDS011;28703;44.412;11.918;2024-02-23T11:54:21;12.77;;;6.95;;
39314;SDS011;28703;44.412;11.918;2024-02-23T11:56:48;12.05;;;7.63;;
39314;SDS011;28703;44.412;11.918;2024-02-23T11:59:18;8.80;;;7.50;;
39314;SDS011;28703;44.412;11.918;2024-02-23T12:01:45;9.20;;;7.53;;
39314;SDS011;28703;44.412;11.918;2024-02-23T12:04:13;12.25;;;7.53;;
39314;SDS011;28703;44.412;11.918;2024-02-23T12:06:40;11.57;;;8.68;;
39314;SDS011;28703;44.412;11.918;2024-02-23T12:09:06;12.70;;;9.82;;
39314;SDS011;28703;44.412;11.918;2024-02-23T12:11:33;13.48;;;9.68;;
39314;SDS011;28703;44.412;11.918;2024-02-23T12:14:00;13.43;;;9.65;;
39314;SDS011;28703;44.412;11.918;2024-02-23T12:16:27;16.17;;;9.00;;
39314;SDS011;28703;44.412;11.918;2024-02-23T12:18:53;15.00;;;9.30;;
39314;SDS011;28703;44.412;11.918;2024-02-23T12:21:20;19.67;;;11.10;;
39314;SDS011;28703;44.412;11.918;2024-02-23T12:23:48;11.73;;;10.10;;
39314;SDS011;28703;44.412;11.918;2024-02-23T12:26:16;28.98;;;19.40;;
39314;SDS011;28703;44.412;11.918;2024-02-23T12:28:43;44.88;;;31.55;;
39314;SDS011;28703;44.412;11.918;2024-02-23T12:31:09;25.55;;;20.70;;
39314;SDS011;28703;44.412;11.918;2024-02-23T12:33:36;30.67;;;23.77;;
39314;SDS011;28703;44.412;11.918;2024-02-23T12:36:03;17.48;;;14.00;;
39314;SDS011;28703;44.412;11.918;2024-02-23T12:38:30;19.98;;;14.18;;
39314;SDS011;28703;44.412;11.918;2024-02-23T12:40:56;15.50;;;11.20;;
39314;SDS011;28703;44.412;11.918;2024-02-23T12:43:22;9.57;;;8.00;;
39314;SDS011;28703;44.412;11.918;2024-02-23T12:45:51;15.68;;;10.30;;
39314;SDS011;28703;44.412;11.918;2024-02-23T12:48:18;11.30;;;9.05;;
39314;SDS011;28703;44.412;11.918;2024-02-23T12:50:45;9.43;;;8.15;;
39314;SDS011;28703;44.412;11.918;2024-02-23T12:56:09;9.20;;;7.82;;
39314;SDS011;28703;44.412;11.918;2024-02-23T12:58:40;11.75;;;10.00;;
39314;SDS011;28703;44.412;11.918;2024-02-23T13:01:08;14.77;;;10.98;;
39314;SDS011;28703;44.412;11.918;2024-02-23T13:03:35;10.25;;;9.05;;
39314;SDS011;28703;44.412;11.918;2024-02-23T13:06:02;19.02;;;12.52;;
39314;SDS011;28703;44.412;11.918;2024-02-23T13:08:28;12.50;;;9.95;;
39314;SDS011;28703;44.412;11.918;2024-02-23T13:10:54;13.57;;;10.20;;
39314;SDS011;28703;44.412;11.918;2024-02-23T13:13:21;18.00;;;9.93;;
39314;SDS011;28703;44.412;11.918;2024-02-23T13:15:47;12.70;;;9.32;;
39314;SDS011;28703;44.412;11.918;2024-02-23T13:18:14;13.77;;;9.70;;
39314;SDS011;28703;44.412;11.918;2024-02-23T13:20:40;10.55;;;8.95;;
39314;SDS011;28703;44.412;11.918;2024-02-23T13:23:07;12.07;;;8.88;;
39314;SDS011;28703;44.412;11.918;2024-02-23T13:25:37;12.20;;;8.95;;
39314;SDS011;28703;44.412;11.918;2024-02-23T13:28:04;12.32;;;8.73;;
39314;SDS011;28703;44.412;11.918;2024-02-23T13:30:30;14.50;;;10.15;;
39314;SDS011;28703;44.412;11.918;2024-02-23T13:32:56;10.82;;;8.93;;
39314;SDS011;28703;44.412;11.918;2024-02-23T13:35:22;13.20;;;10.18;;
39314;SDS011;28703;44.412;11.918;2024-02-23T13:37:48;11.13;;;9.88;;
39314;SDS011;28703;44.412;11.918;2024-02-23T13:40:14;11.10;;;9.77;;
39314;SDS011;28703;44.412;11.918;2024-02-23T13:42:40;12.93;;;8.65;;
39314;SDS011;28703;44.412;11.918;2024-02-23T13:45:06;14.45;;;8.90;;
39314;SDS011;28703;44.412;11.918;2024-02-23T13:47:34;9.55;;;8.57;;
39314;SDS011;28703;44.412;11.918;2024-02-23T13:50:00;9.90;;;8.90;;
39314;SDS011;28703;44.412;11.918;2024-02-23T13:52:26;15.68;;;11.23;;
39314;SDS011;28703;44.412;11.918;2024-02-23T13:54:53;13.68;;;9.40;;
39314;SDS011;28703;44.412;11.918;2024-02-23T13:57:18;11.85;;;8.85;;
39314;SDS011;28703;44.412;11.918;2024-02-23T13:59:44;9.00;;;7.47;;
39314;SDS011;28703;44.412;11.918;2024-02-23T14:02:10;11.40;;;8.90;;
39314;SDS011;28703;44.412;11.918;2024-02-23T14:04:36;16.52;;;9.05;;
39314;SDS011;28703;44.412;11.918;2024-02-23T14:07:01;13.40;;;8.95;;
39314;SDS011;28703;44.412;11.918;2024-02-23T14:09:29;9.55;;;8.50;;
39314;SDS011;28703;44.412;11.918;2024-02-23T14:11:55;11.45;;;8.70;;
39314;SDS011;28703;44.412;11.918;2024-02-23T14:14:22;11.38;;;8.65;;
39314;SDS011;28703;44.412;11.918;2024-02-23T14:16:48;9.60;;;8.60;;
39314;SDS011;28703;44.412;11.918;2024-02-23T14:19:14;12.77;;;9.10;;
39314;SDS011;28703;44.412;11.918;2024-02-23T14:21:40;10.95;;;9.80;;
39314;SDS011;28703;44.412;11.918;2024-02-23T14:24:06;11.20;;;9.77;;
39314;SDS011;28703;44.412;11.918;2024-02-23T14:26:32;11.13;;;8.98;;